sensor_id;sensor_type;location;lat;lon;timestamp;temperature;humidity
15615;DHT22;7907;51.368;6.730;2023-02-15T00:00:04;6.00;99.90
15615;DHT22;7907;51.368;6.730;2023-02-15T00:02:33;6.00;99.90
15615;DHT22;7907;51.368;6.730;2023-02-15T00:05:00;6.00;99.90
15615;DHT22;7907;51.368;6.730;2023-02-15T00:07:28;6.00;99.90
15615;DHT22;7907;51.368;6.730;2023-02-15T00:09:55;5.90;99.90
15615;DHT22;7907;51.368;6.730;2023-02-15T00:12:22;5.90;99.90
15615;DHT22;7907;51.368;6.730;2023-02-15T00:14:50;5.90;99.90
15615;DHT22;7907;51.368;6.730;2023-02-15T00:17:17;5.90;99.90
15615;DHT22;7907;51.368;6.730;2023-02-15T00:19:45;5.80;99.90
15615;DHT22;7907;51.368;6.730;2023-02-15T00:22:12;5.80;99.90
15615;DHT22;7907;51.368;6.730;2023-02-15T00:24:39;5.70;99.90
15615;DHT22;7907;51.368;6.730;2023-02-15T00:27:06;5.80;99.90
15615;DHT22;7907;51.368;6.730;2023-02-15T00:29:34;5.70;99.90
15615;DHT22;7907;51.368;6.730;2023-02-15T00:32:03;5.70;99.90
15615;DHT22;7907;51.368;6.730;2023-02-15T00:34:32;5.70;99.90
15615;DHT22;7907;51.368;6.730;2023-02-15T00:36:59;5.70;99.90
15615;DHT22;7907;51.368;6.730;2023-02-15T00:39:26;5.70;99.90
15615;DHT22;7907;51.368;6.730;2023-02-15T00:41:54;5.70;99.90
15615;DHT22;7907;51.368;6.730;2023-02-15T00:44:22;5.60;99.90
15615;DHT22;7907;51.368;6.730;2023-02-15T00:46:50;5.60;99.90
15615;DHT22;7907;51.368;6.730;2023-02-15T00:49:19;5.60;99.90
15615;DHT22;7907;51.368;6.730;2023-02-15T00:51:46;5.60;99.90
15615;DHT22;7907;51.368;6.730;2023-02-15T00:54:13;5.60;99.90
15615;DHT22;7907;51.368;6.730;2023-02-15T00:56:40;5.50;99.90
15615;DHT22;7907;51.368;6.730;2023-02-15T00:59:08;5.50;99.90
15615;DHT22;7907;51.368;6.730;2023-02-15T01:01:35;5.50;99.90
15615;DHT22;7907;51.368;6.730;2023-02-15T01:04:02;5.40;99.90
15615;DHT22;7907;51.368;6.730;2023-02-15T01:06:31;5.40;99.90
15615;DHT22;7907;51.368;6.730;2023-02-15T01:08:58;5.40;99.90
15615;DHT22;7907;51.368;6.730;2023-02-15T01:11:25;5.40;99.90
15615;DHT22;7907;51.368;6.730;2023-02-15T01:13:54;5.40;99.90
15615;DHT22;7907;51.368;6.730;2023-02-15T01:16:23;5.30;99.90
15615;DHT22;7907;51.368;6.730;2023-02-15T01:18:51;5.30;99.90
15615;DHT22;7907;51.368;6.730;2023-02-15T01:21:23;5.30;99.90
15615;DHT22;7907;51.368;6.730;2023-02-15T01:23:52;5.30;99.90
15615;DHT22;7907;51.368;6.730;2023-02-15T01:26:20;5.30;99.90
15615;DHT22;7907;51.368;6.730;2023-02-15T01:28:47;5.20;99.90
15615;DHT22;7907;51.368;6.730;2023-02-15T01:31:17;5.20;99.90
15615;DHT22;7907;51.368;6.730;2023-02-15T01:33:44;5.20;99.90
15615;DHT22;7907;51.368;6.730;2023-02-15T01:36:12;5.20;99.90
15615;DHT22;7907;51.368;6.730;2023-02-15T01:38:39;5.20;99.90
15615;DHT22;7907;51.368;6.730;2023-02-15T01:41:09;5.20;99.90
15615;DHT22;7907;51.368;6.730;2023-02-15T01:43:54;5.10;99.90
15615;DHT22;7907;51.368;6.730;2023-02-15T01:46:26;5.10;99.90
15615;DHT22;7907;51.368;6.730;2023-02-15T01:48:57;5.10;99.90
15615;DHT22;7907;51.368;6.730;2023-02-15T01:51:27;5.00;99.90
15615;DHT22;7907;51.368;6.730;2023-02-15T01:54:00;5.00;99.90
15615;DHT22;7907;51.368;6.730;2023-02-15T01:56:32;5.00;99.90
15615;DHT22;7907;51.368;6.730;2023-02-15T01:59:04;5.00;99.90
15615;DHT22;7907;51.368;6.730;2023-02-15T02:01:33;5.00;99.90
15615;DHT22;7907;51.368;6.730;2023-02-15T02:04:04;5.00;99.90
15615;DHT22;7907;51.368;6.730;2023-02-15T02:06:35;5.00;99.90
15615;DHT22;7907;51.368;6.730;2023-02-15T02:09:03;5.00;99.90
15615;DHT22;7907;51.368;6.730;2023-02-15T02:11:33;5.00;99.90
15615;DHT22;7907;51.368;6.730;2023-02-15T02:14:00;4.90;99.90
15615;DHT22;7907;51.368;6.730;2023-02-15T02:16:33;4.90;99.90
15615;DHT22;7907;51.368;6.730;2023-02-15T02:19:29;4.90;99.90
15615;DHT22;7907;51.368;6.730;2023-02-15T02:22:36;4.90;99.90
15615;DHT22;7907;51.368;6.730;2023-02-15T02:28:44;4.90;99.90
15615;DHT22;7907;51.368;6.730;2023-02-15T02:31:44;4.90;99.90
15615;DHT22;7907;51.368;6.730;2023-02-15T02:34:22;4.90;99.90
15615;DHT22;7907;51.368;6.730;2023-02-15T02:36:59;4.80;99.90
15615;DHT22;7907;51.368;6.730;2023-02-15T02:39:47;4.80;99.90
15615;DHT22;7907;51.368;6.730;2023-02-15T02:42:21;4.80;99.90
15615;DHT22;7907;51.368;6.730;2023-02-15T02:44:56;4.80;99.90
15615;DHT22;7907;51.368;6.730;2023-02-15T02:47:29;4.80;99.90
15615;DHT22;7907;51.368;6.730;2023-02-15T02:50:02;4.80;99.90
15615;DHT22;7907;51.368;6.730;2023-02-15T02:52:40;4.80;99.90
15615;DHT22;7907;51.368;6.730;2023-02-15T02:55:12;4.80;99.90
15615;DHT22;7907;51.368;6.730;2023-02-15T02:57:46;4.70;99.90
15615;DHT22;7907;51.368;6.730;2023-02-15T03:00:15;4.70;99.90
15615;DHT22;7907;51.368;6.730;2023-02-15T03:02:46;4.70;99.90
15615;DHT22;7907;51.368;6.730;2023-02-15T03:05:20;4.70;99.90
15615;DHT22;7907;51.368;6.730;2023-02-15T03:07:49;4.70;99.90
15615;DHT22;7907;51.368;6.730;2023-02-15T03:10:21;4.70;99.90
15615;DHT22;7907;51.368;6.730;2023-02-15T03:12:50;4.70;99.90
15615;DHT22;7907;51.368;6.730;2023-02-15T03:15:20;4.70;99.90
15615;DHT22;7907;51.368;6.730;2023-02-15T03:17:49;4.70;99.90
15615;DHT22;7907;51.368;6.730;2023-02-15T03:20:29;4.60;99.90
15615;DHT22;7907;51.368;6.730;2023-02-15T03:22:59;4.60;99.90
15615;DHT22;7907;51.368;6.730;2023-02-15T03:25:31;4.60;99.90
15615;DHT22;7907;51.368;6.730;2023-02-15T03:28:02;4.60;99.90
15615;DHT22;7907;51.368;6.730;2023-02-15T03:30:35;4.60;99.90
15615;DHT22;7907;51.368;6.730;2023-02-15T03:33:03;4.60;99.90
15615;DHT22;7907;51.368;6.730;2023-02-15T03:35:39;4.60;99.90
15615;DHT22;7907;51.368;6.730;2023-02-15T03:38:08;4.60;99.90
15615;DHT22;7907;51.368;6.730;2023-02-15T03:40:38;4.60;99.90
15615;DHT22;7907;51.368;6.730;2023-02-15T03:43:31;4.60;99.90
15615;DHT22;7907;51.368;6.730;2023-02-15T03:46:03;4.60;99.90
15615;DHT22;7907;51.368;6.730;2023-02-15T03:48:34;4.60;99.90
15615;DHT22;7907;51.368;6.730;2023-02-15T03:51:08;4.60;99.90
15615;DHT22;7907;51.368;6.730;2023-02-15T03:53:54;4.50;99.90
15615;DHT22;7907;51.368;6.730;2023-02-15T03:56:24;4.50;99.90
15615;DHT22;7907;51.368;6.730;2023-02-15T03:58:51;4.50;99.90
15615;DHT22;7907;51.368;6.730;2023-02-15T04:01:39;4.50;99.90
15615;DHT22;7907;51.368;6.730;2023-02-15T04:04:32;4.50;99.90
15615;DHT22;7907;51.368;6.730;2023-02-15T04:07:01;4.50;99.90
15615;DHT22;7907;51.368;6.730;2023-02-15T04:09:28;4.50;99.90
15615;DHT22;7907;51.368;6.730;2023-02-15T04:12:13;4.40;99.90
15615;DHT22;7907;51.368;6.730;2023-02-15T04:14:41;4.40;99.90
15615;DHT22;7907;51.368;6.730;2023-02-15T04:17:37;4.40;99.90
15615;DHT22;7907;51.368;6.730;2023-02-15T04:20:05;4.40;99.90
15615;DHT22;7907;51.368;6.730;2023-02-15T04:22:52;4.40;99.90
15615;DHT22;7907;51.368;6.730;2023-02-15T04:25:36;4.40;99.90
15615;DHT22;7907;51.368;6.730;2023-02-15T04:28:04;4.30;99.90
15615;DHT22;7907;51.368;6.730;2023-02-15T04:30:33;4.30;99.90
15615;DHT22;7907;51.368;6.730;2023-02-15T04:33:00;4.30;99.90
15615;DHT22;7907;51.368;6.730;2023-02-15T04:35:27;4.30;99.90
15615;DHT22;7907;51.368;6.730;2023-02-15T04:37:59;4.30;99.90
15615;DHT22;7907;51.368;6.730;2023-02-15T04:40:27;4.30;99.90
15615;DHT22;7907;51.368;6.730;2023-02-15T04:42:54;4.30;99.90
15615;DHT22;7907;51.368;6.730;2023-02-15T04:45:21;4.20;99.90
15615;DHT22;7907;51.368;6.730;2023-02-15T04:47:49;4.20;99.90
15615;DHT22;7907;51.368;6.730;2023-02-15T04:50:16;4.20;99.90
15615;DHT22;7907;51.368;6.730;2023-02-15T04:52:44;4.10;99.90
15615;DHT22;7907;51.368;6.730;2023-02-15T04:55:13;4.10;99.90
15615;DHT22;7907;51.368;6.730;2023-02-15T04:57:41;4.10;99.90
15615;DHT22;7907;51.368;6.730;2023-02-15T05:00:09;4.10;99.90
15615;DHT22;7907;51.368;6.730;2023-02-15T05:02:37;4.10;99.90
15615;DHT22;7907;51.368;6.730;2023-02-15T05:05:05;4.10;99.90
15615;DHT22;7907;51.368;6.730;2023-02-15T05:07:32;4.10;99.90
15615;DHT22;7907;51.368;6.730;2023-02-15T05:10:00;4.00;99.90
15615;DHT22;7907;51.368;6.730;2023-02-15T05:12:29;4.00;99.90
15615;DHT22;7907;51.368;6.730;2023-02-15T05:14:56;4.00;99.90
15615;DHT22;7907;51.368;6.730;2023-02-15T05:17:23;4.00;99.90
15615;DHT22;7907;51.368;6.730;2023-02-15T05:19:50;3.90;99.90
15615;DHT22;7907;51.368;6.730;2023-02-15T05:22:18;4.00;99.90
15615;DHT22;7907;51.368;6.730;2023-02-15T05:24:45;4.00;99.90
15615;DHT22;7907;51.368;6.730;2023-02-15T05:27:37;3.90;99.90
15615;DHT22;7907;51.368;6.730;2023-02-15T05:30:21;3.90;99.90
15615;DHT22;7907;51.368;6.730;2023-02-15T05:32:49;3.90;99.90
15615;DHT22;7907;51.368;6.730;2023-02-15T05:35:17;4.00;99.90
15615;DHT22;7907;51.368;6.730;2023-02-15T05:37:44;3.90;99.90
15615;DHT22;7907;51.368;6.730;2023-02-15T05:40:12;3.90;99.90
15615;DHT22;7907;51.368;6.730;2023-02-15T05:42:50;3.90;99.90
15615;DHT22;7907;51.368;6.730;2023-02-15T05:45:20;3.90;99.90
15615;DHT22;7907;51.368;6.730;2023-02-15T05:47:47;3.90;99.90
15615;DHT22;7907;51.368;6.730;2023-02-15T05:50:15;3.80;99.90
15615;DHT22;7907;51.368;6.730;2023-02-15T05:52:42;3.80;99.90
15615;DHT22;7907;51.368;6.730;2023-02-15T05:55:10;3.80;99.90
15615;DHT22;7907;51.368;6.730;2023-02-15T05:57:38;3.80;99.90
15615;DHT22;7907;51.368;6.730;2023-02-15T06:00:08;3.80;99.90
15615;DHT22;7907;51.368;6.730;2023-02-15T06:02:42;3.80;99.90
15615;DHT22;7907;51.368;6.730;2023-02-15T06:05:10;3.80;99.90
15615;DHT22;7907;51.368;6.730;2023-02-15T06:07:37;3.80;99.90
15615;DHT22;7907;51.368;6.730;2023-02-15T06:10:06;3.80;99.90
15615;DHT22;7907;51.368;6.730;2023-02-15T06:12:33;3.70;99.90
15615;DHT22;7907;51.368;6.730;2023-02-15T06:15:01;3.80;99.90
15615;DHT22;7907;51.368;6.730;2023-02-15T06:20:48;3.80;99.90
15615;DHT22;7907;51.368;6.730;2023-02-15T06:23:15;3.80;99.90
15615;DHT22;7907;51.368;6.730;2023-02-15T06:25:44;3.70;99.90
15615;DHT22;7907;51.368;6.730;2023-02-15T06:28:11;3.80;99.90
15615;DHT22;7907;51.368;6.730;2023-02-15T06:30:39;3.70;99.90
15615;DHT22;7907;51.368;6.730;2023-02-15T06:33:06;3.70;99.90
15615;DHT22;7907;51.368;6.730;2023-02-15T06:35:33;3.80;99.90
15615;DHT22;7907;51.368;6.730;2023-02-15T06:38:02;3.70;99.90
15615;DHT22;7907;51.368;6.730;2023-02-15T06:40:31;3.70;99.90
15615;DHT22;7907;51.368;6.730;2023-02-15T06:42:58;3.70;99.90
15615;DHT22;7907;51.368;6.730;2023-02-15T06:45:25;3.70;99.90
15615;DHT22;7907;51.368;6.730;2023-02-15T06:47:54;3.70;99.90
15615;DHT22;7907;51.368;6.730;2023-02-15T06:50:23;3.70;99.90
15615;DHT22;7907;51.368;6.730;2023-02-15T06:52:58;3.70;99.90
15615;DHT22;7907;51.368;6.730;2023-02-15T06:55:30;3.80;99.90
15615;DHT22;7907;51.368;6.730;2023-02-15T06:57:57;3.80;99.90
15615;DHT22;7907;51.368;6.730;2023-02-15T07:00:27;3.80;99.90
15615;DHT22;7907;51.368;6.730;2023-02-15T07:03:07;3.70;99.90
15615;DHT22;7907;51.368;6.730;2023-02-15T07:05:37;3.80;99.90
15615;DHT22;7907;51.368;6.730;2023-02-15T07:08:10;3.80;99.90
15615;DHT22;7907;51.368;6.730;2023-02-15T07:10:45;3.80;99.90
15615;DHT22;7907;51.368;6.730;2023-02-15T07:13:20;3.80;99.90
15615;DHT22;7907;51.368;6.730;2023-02-15T07:15:47;3.80;99.90
15615;DHT22;7907;51.368;6.730;2023-02-15T07:18:16;3.80;99.90
15615;DHT22;7907;51.368;6.730;2023-02-15T07:20:46;3.80;99.90
15615;DHT22;7907;51.368;6.730;2023-02-15T07:23:14;3.80;99.90
15615;DHT22;7907;51.368;6.730;2023-02-15T07:25:46;3.90;99.90
15615;DHT22;7907;51.368;6.730;2023-02-15T07:28:14;3.90;99.90
15615;DHT22;7907;51.368;6.730;2023-02-15T07:30:41;3.90;99.90
15615;DHT22;7907;51.368;6.730;2023-02-15T07:33:09;4.00;99.90
15615;DHT22;7907;51.368;6.730;2023-02-15T07:35:54;4.00;99.90
15615;DHT22;7907;51.368;6.730;2023-02-15T07:38:26;4.00;99.90
15615;DHT22;7907;51.368;6.730;2023-02-15T07:41:04;4.00;99.90
15615;DHT22;7907;51.368;6.730;2023-02-15T07:43:34;4.10;99.90
15615;DHT22;7907;51.368;6.730;2023-02-15T07:46:04;4.10;99.90
15615;DHT22;7907;51.368;6.730;2023-02-15T07:48:33;4.10;99.90
15615;DHT22;7907;51.368;6.730;2023-02-15T07:51:05;4.10;99.90
15615;DHT22;7907;51.368;6.730;2023-02-15T07:53:36;4.20;99.90
15615;DHT22;7907;51.368;6.730;2023-02-15T07:56:09;4.30;99.90
15615;DHT22;7907;51.368;6.730;2023-02-15T07:58:40;4.30;99.90
15615;DHT22;7907;51.368;6.730;2023-02-15T08:01:23;4.40;99.90
15615;DHT22;7907;51.368;6.730;2023-02-15T08:03:53;4.50;99.90
15615;DHT22;7907;51.368;6.730;2023-02-15T08:06:29;4.50;99.90
15615;DHT22;7907;51.368;6.730;2023-02-15T08:09:05;4.50;99.90
15615;DHT22;7907;51.368;6.730;2023-02-15T08:11:36;4.50;99.90
15615;DHT22;7907;51.368;6.730;2023-02-15T08:14:06;4.60;99.90
15615;DHT22;7907;51.368;6.730;2023-02-15T08:16:35;4.60;99.90
15615;DHT22;7907;51.368;6.730;2023-02-15T08:19:05;4.70;99.90
15615;DHT22;7907;51.368;6.730;2023-02-15T08:21:39;4.70;99.90
15615;DHT22;7907;51.368;6.730;2023-02-15T08:24:09;4.70;99.90
15615;DHT22;7907;51.368;6.730;2023-02-15T08:26:39;4.70;99.90
15615;DHT22;7907;51.368;6.730;2023-02-15T08:29:07;4.80;99.90
15615;DHT22;7907;51.368;6.730;2023-02-15T08:31:35;4.90;99.90
15615;DHT22;7907;51.368;6.730;2023-02-15T08:34:04;4.90;99.90
15615;DHT22;7907;51.368;6.730;2023-02-15T08:36:35;5.00;99.90
15615;DHT22;7907;51.368;6.730;2023-02-15T08:39:10;5.00;99.90
15615;DHT22;7907;51.368;6.730;2023-02-15T08:41:44;5.10;99.90
15615;DHT22;7907;51.368;6.730;2023-02-15T08:44:12;5.20;99.90
15615;DHT22;7907;51.368;6.730;2023-02-15T08:46:42;5.20;99.90
15615;DHT22;7907;51.368;6.730;2023-02-15T08:49:09;5.30;99.90
15615;DHT22;7907;51.368;6.730;2023-02-15T08:51:41;5.30;99.90
15615;DHT22;7907;51.368;6.730;2023-02-15T08:54:10;5.40;99.90
15615;DHT22;7907;51.368;6.730;2023-02-15T08:56:47;5.40;99.90
15615;DHT22;7907;51.368;6.730;2023-02-15T08:59:18;5.50;99.90
15615;DHT22;7907;51.368;6.730;2023-02-15T09:01:55;5.60;99.90
15615;DHT22;7907;51.368;6.730;2023-02-15T09:04:26;5.70;99.90
15615;DHT22;7907;51.368;6.730;2023-02-15T09:07:16;5.70;99.90
15615;DHT22;7907;51.368;6.730;2023-02-15T09:09:45;5.80;99.90
15615;DHT22;7907;51.368;6.730;2023-02-15T09:12:16;5.90;99.90
15615;DHT22;7907;51.368;6.730;2023-02-15T09:18:04;6.00;99.90
15615;DHT22;7907;51.368;6.730;2023-02-15T09:20:43;6.10;99.90
15615;DHT22;7907;51.368;6.730;2023-02-15T09:23:13;6.10;99.90
15615;DHT22;7907;51.368;6.730;2023-02-15T09:25:42;6.20;99.90
15615;DHT22;7907;51.368;6.730;2023-02-15T09:28:12;6.30;99.90
15615;DHT22;7907;51.368;6.730;2023-02-15T09:30:39;6.40;99.90
15615;DHT22;7907;51.368;6.730;2023-02-15T09:33:08;6.50;99.90
15615;DHT22;7907;51.368;6.730;2023-02-15T09:35:35;6.60;99.90
15615;DHT22;7907;51.368;6.730;2023-02-15T09:38:03;6.70;99.90
15615;DHT22;7907;51.368;6.730;2023-02-15T09:40:38;6.70;99.90
15615;DHT22;7907;51.368;6.730;2023-02-15T09:43:22;6.80;99.90
15615;DHT22;7907;51.368;6.730;2023-02-15T09:46:13;6.90;99.90
15615;DHT22;7907;51.368;6.730;2023-02-15T09:49:02;7.00;99.90
15615;DHT22;7907;51.368;6.730;2023-02-15T09:51:50;7.10;99.90
15615;DHT22;7907;51.368;6.730;2023-02-15T09:54:33;7.30;99.90
15615;DHT22;7907;51.368;6.730;2023-02-15T09:57:08;7.30;99.90
15615;DHT22;7907;51.368;6.730;2023-02-15T09:59:46;7.40;99.90
15615;DHT22;7907;51.368;6.730;2023-02-15T10:02:31;7.50;99.90
15615;DHT22;7907;51.368;6.730;2023-02-15T10:05:12;7.60;99.90
15615;DHT22;7907;51.368;6.730;2023-02-15T10:08:19;7.70;99.90
15615;DHT22;7907;51.368;6.730;2023-02-15T10:11:02;7.80;99.90
15615;DHT22;7907;51.368;6.730;2023-02-15T10:14:01;7.90;99.90
15615;DHT22;7907;51.368;6.730;2023-02-15T10:16:43;8.00;99.90
15615;DHT22;7907;51.368;6.730;2023-02-15T10:19:20;8.10;99.90
15615;DHT22;7907;51.368;6.730;2023-02-15T10:22:00;8.10;99.90
15615;DHT22;7907;51.368;6.730;2023-02-15T10:24:51;8.20;99.90
15615;DHT22;7907;51.368;6.730;2023-02-15T10:27:25;8.30;99.90
15615;DHT22;7907;51.368;6.730;2023-02-15T10:30:02;8.30;99.90
15615;DHT22;7907;51.368;6.730;2023-02-15T10:32:38;8.40;99.90
15615;DHT22;7907;51.368;6.730;2023-02-15T10:35:16;8.50;99.90
15615;DHT22;7907;51.368;6.730;2023-02-15T10:37:56;8.60;99.90
15615;DHT22;7907;51.368;6.730;2023-02-15T10:40:40;8.70;99.90
15615;DHT22;7907;51.368;6.730;2023-02-15T10:43:30;8.80;99.90
15615;DHT22;7907;51.368;6.730;2023-02-15T10:46:09;8.90;99.90
15615;DHT22;7907;51.368;6.730;2023-02-15T10:48:54;9.00;99.90
15615;DHT22;7907;51.368;6.730;2023-02-15T10:51:34;9.10;99.90
15615;DHT22;7907;51.368;6.730;2023-02-15T10:54:12;9.20;99.90
15615;DHT22;7907;51.368;6.730;2023-02-15T10:56:48;9.30;99.90
15615;DHT22;7907;51.368;6.730;2023-02-15T10:59:49;9.40;99.90
15615;DHT22;7907;51.368;6.730;2023-02-15T11:02:30;9.50;99.90
15615;DHT22;7907;51.368;6.730;2023-02-15T11:05:16;9.50;99.90
15615;DHT22;7907;51.368;6.730;2023-02-15T11:07:48;9.60;99.90
15615;DHT22;7907;51.368;6.730;2023-02-15T11:10:26;9.70;99.90
15615;DHT22;7907;51.368;6.730;2023-02-15T11:13:02;9.80;99.90
15615;DHT22;7907;51.368;6.730;2023-02-15T11:15:34;9.90;99.90
15615;DHT22;7907;51.368;6.730;2023-02-15T11:18:09;10.00;99.90
15615;DHT22;7907;51.368;6.730;2023-02-15T11:20:48;10.10;99.90
15615;DHT22;7907;51.368;6.730;2023-02-15T11:23:17;10.20;99.90
15615;DHT22;7907;51.368;6.730;2023-02-15T11:25:47;10.20;99.90
15615;DHT22;7907;51.368;6.730;2023-02-15T11:28:24;10.30;99.90
15615;DHT22;7907;51.368;6.730;2023-02-15T11:30:55;10.40;99.90
15615;DHT22;7907;51.368;6.730;2023-02-15T11:33:27;10.50;99.90
15615;DHT22;7907;51.368;6.730;2023-02-15T11:36:01;10.50;99.90
15615;DHT22;7907;51.368;6.730;2023-02-15T11:38:32;10.60;99.90
15615;DHT22;7907;51.368;6.730;2023-02-15T11:41:05;10.70;99.90
15615;DHT22;7907;51.368;6.730;2023-02-15T11:43:38;10.70;99.90
15615;DHT22;7907;51.368;6.730;2023-02-15T11:46:08;10.90;99.90
15615;DHT22;7907;51.368;6.730;2023-02-15T11:48:36;11.00;99.90
15615;DHT22;7907;51.368;6.730;2023-02-15T11:51:18;11.10;99.90
15615;DHT22;7907;51.368;6.730;2023-02-15T11:53:46;11.30;99.90
15615;DHT22;7907;51.368;6.730;2023-02-15T11:56:19;11.40;99.90
15615;DHT22;7907;51.368;6.730;2023-02-15T11:58:51;11.60;99.90
15615;DHT22;7907;51.368;6.730;2023-02-15T12:01:23;11.70;99.90
15615;DHT22;7907;51.368;6.730;2023-02-15T12:03:55;11.90;99.90
15615;DHT22;7907;51.368;6.730;2023-02-15T12:06:28;12.10;99.90
15615;DHT22;7907;51.368;6.730;2023-02-15T12:09:01;12.30;99.60
15615;DHT22;7907;51.368;6.730;2023-02-15T12:14:46;12.50;99.30
15615;DHT22;7907;51.368;6.730;2023-02-15T12:17:15;12.60;98.70
15615;DHT22;7907;51.368;6.730;2023-02-15T12:19:51;12.80;97.80
15615;DHT22;7907;51.368;6.730;2023-02-15T12:22:24;13.00;98.30
15615;DHT22;7907;51.368;6.730;2023-02-15T12:24:59;13.20;96.70
15615;DHT22;7907;51.368;6.730;2023-02-15T12:27:28;13.40;95.60
15615;DHT22;7907;51.368;6.730;2023-02-15T12:29:58;13.60;95.10
15615;DHT22;7907;51.368;6.730;2023-02-15T12:32:28;13.70;94.50
15615;DHT22;7907;51.368;6.730;2023-02-15T12:35:02;13.90;94.50
15615;DHT22;7907;51.368;6.730;2023-02-15T12:37:36;14.20;93.40
15615;DHT22;7907;51.368;6.730;2023-02-15T12:40:20;14.30;92.30
15615;DHT22;7907;51.368;6.730;2023-02-15T12:42:47;14.60;90.80
15615;DHT22;7907;51.368;6.730;2023-02-15T12:45:24;14.80;89.50
15615;DHT22;7907;51.368;6.730;2023-02-15T12:48:12;14.90;87.50
15615;DHT22;7907;51.368;6.730;2023-02-15T12:50:48;15.10;86.50
15615;DHT22;7907;51.368;6.730;2023-02-15T12:53:19;15.40;85.60
15615;DHT22;7907;51.368;6.730;2023-02-15T12:55:54;15.60;81.60
15615;DHT22;7907;51.368;6.730;2023-02-15T12:58:23;15.80;80.70
15615;DHT22;7907;51.368;6.730;2023-02-15T13:01:12;16.00;80.60
15615;DHT22;7907;51.368;6.730;2023-02-15T13:03:57;16.20;79.60
15615;DHT22;7907;51.368;6.730;2023-02-15T13:06:26;16.40;78.60
15615;DHT22;7907;51.368;6.730;2023-02-15T13:08:57;16.60;78.30
15615;DHT22;7907;51.368;6.730;2023-02-15T13:11:27;16.90;76.90
15615;DHT22;7907;51.368;6.730;2023-02-15T13:14:01;17.10;75.80
15615;DHT22;7907;51.368;6.730;2023-02-15T13:16:31;17.40;73.00
15615;DHT22;7907;51.368;6.730;2023-02-15T13:19:06;17.70;71.80
15615;DHT22;7907;51.368;6.730;2023-02-15T13:21:37;17.90;70.50
15615;DHT22;7907;51.368;6.730;2023-02-15T13:24:15;18.10;68.70
15615;DHT22;7907;51.368;6.730;2023-02-15T13:26:45;18.20;67.30
15615;DHT22;7907;51.368;6.730;2023-02-15T13:29:18;18.40;65.40
15615;DHT22;7907;51.368;6.730;2023-02-15T13:31:50;18.50;64.20
15615;DHT22;7907;51.368;6.730;2023-02-15T13:34:22;18.70;64.00
15615;DHT22;7907;51.368;6.730;2023-02-15T13:36:55;18.90;62.70
15615;DHT22;7907;51.368;6.730;2023-02-15T13:39:31;19.00;60.90
15615;DHT22;7907;51.368;6.730;2023-02-15T13:42:04;19.10;60.10
15615;DHT22;7907;51.368;6.730;2023-02-15T13:44:56;19.30;60.30
15615;DHT22;7907;51.368;6.730;2023-02-15T13:47:34;19.60;59.90
15615;DHT22;7907;51.368;6.730;2023-02-15T13:50:19;19.90;57.80
15615;DHT22;7907;51.368;6.730;2023-02-15T13:52:57;20.00;56.40
15615;DHT22;7907;51.368;6.730;2023-02-15T13:55:36;20.20;56.20
15615;DHT22;7907;51.368;6.730;2023-02-15T14:01:03;20.80;54.20
15615;DHT22;7907;51.368;6.730;2023-02-15T14:03:52;21.20;53.90
15615;DHT22;7907;51.368;6.730;2023-02-15T14:06:34;21.30;52.30
15615;DHT22;7907;51.368;6.730;2023-02-15T14:09:14;21.30;51.50
15615;DHT22;7907;51.368;6.730;2023-02-15T14:11:54;21.40;51.40
15615;DHT22;7907;51.368;6.730;2023-02-15T14:14:52;21.60;49.70
15615;DHT22;7907;51.368;6.730;2023-02-15T14:17:28;21.60;49.30
15615;DHT22;7907;51.368;6.730;2023-02-15T14:20:05;21.70;48.80
15615;DHT22;7907;51.368;6.730;2023-02-15T14:22:36;21.70;48.50
15615;DHT22;7907;51.368;6.730;2023-02-15T14:25:17;21.70;49.10
15615;DHT22;7907;51.368;6.730;2023-02-15T14:27:54;21.60;48.20
15615;DHT22;7907;51.368;6.730;2023-02-15T14:30:25;21.40;48.50
15615;DHT22;7907;51.368;6.730;2023-02-15T14:32:55;21.30;49.10
15615;DHT22;7907;51.368;6.730;2023-02-15T14:35:26;21.10;49.30
15615;DHT22;7907;51.368;6.730;2023-02-15T14:37:59;21.00;49.70
15615;DHT22;7907;51.368;6.730;2023-02-15T14:40:34;21.00;50.20
15615;DHT22;7907;51.368;6.730;2023-02-15T14:43:34;20.90;50.80
15615;DHT22;7907;51.368;6.730;2023-02-15T14:46:11;20.70;50.30
15615;DHT22;7907;51.368;6.730;2023-02-15T14:48:46;20.60;50.50
15615;DHT22;7907;51.368;6.730;2023-02-15T14:57:24;19.70;51.60
15615;DHT22;7907;51.368;6.730;2023-02-15T14:59:55;19.30;51.90
15615;DHT22;7907;51.368;6.730;2023-02-15T15:02:29;19.20;52.70
15615;DHT22;7907;51.368;6.730;2023-02-15T15:05:07;19.00;53.30
15615;DHT22;7907;51.368;6.730;2023-02-15T15:07:42;18.90;53.30
15615;DHT22;7907;51.368;6.730;2023-02-15T15:10:35;18.70;53.50
15615;DHT22;7907;51.368;6.730;2023-02-15T15:13:39;18.50;53.90
15615;DHT22;7907;51.368;6.730;2023-02-15T15:16:47;18.40;54.60
15615;DHT22;7907;51.368;6.730;2023-02-15T15:22:33;18.20;54.70
15615;DHT22;7907;51.368;6.730;2023-02-15T15:25:01;18.20;55.60
15615;DHT22;7907;51.368;6.730;2023-02-15T15:27:49;18.20;55.40
15615;DHT22;7907;51.368;6.730;2023-02-15T15:40:26;17.40;57.50
15615;DHT22;7907;51.368;6.730;2023-02-15T15:46:13;16.90;59.00
15615;DHT22;7907;51.368;6.730;2023-02-15T15:48:42;16.70;59.40
15615;DHT22;7907;51.368;6.730;2023-02-15T15:51:14;16.50;60.10
15615;DHT22;7907;51.368;6.730;2023-02-15T15:53:49;16.40;60.50
15615;DHT22;7907;51.368;6.730;2023-02-15T15:56:24;16.20;61.20
15615;DHT22;7907;51.368;6.730;2023-02-15T15:58:59;16.00;61.90
15615;DHT22;7907;51.368;6.730;2023-02-15T16:01:29;15.80;62.40
15615;DHT22;7907;51.368;6.730;2023-02-15T16:03:58;15.70;62.70
15615;DHT22;7907;51.368;6.730;2023-02-15T16:06:30;15.50;63.30
15615;DHT22;7907;51.368;6.730;2023-02-15T16:09:12;15.40;64.40
15615;DHT22;7907;51.368;6.730;2023-02-15T16:11:40;15.20;64.70
15615;DHT22;7907;51.368;6.730;2023-02-15T16:14:24;15.00;65.40
15615;DHT22;7907;51.368;6.730;2023-02-15T16:17:07;14.80;65.70
15615;DHT22;7907;51.368;6.730;2023-02-15T16:19:42;14.70;66.30
15615;DHT22;7907;51.368;6.730;2023-02-15T16:22:13;14.60;67.10
15615;DHT22;7907;51.368;6.730;2023-02-15T16:27:48;14.30;68.10
15615;DHT22;7907;51.368;6.730;2023-02-15T16:30:27;14.10;69.10
15615;DHT22;7907;51.368;6.730;2023-02-15T16:33:04;14.00;69.90
15615;DHT22;7907;51.368;6.730;2023-02-15T16:35:32;13.90;70.70
15615;DHT22;7907;51.368;6.730;2023-02-15T16:38:00;13.80;71.50
15615;DHT22;7907;51.368;6.730;2023-02-15T16:43:29;13.50;72.70
15615;DHT22;7907;51.368;6.730;2023-02-15T16:46:03;13.40;74.00
15615;DHT22;7907;51.368;6.730;2023-02-15T16:48:34;13.30;75.00
15615;DHT22;7907;51.368;6.730;2023-02-15T16:51:07;13.10;75.70
15615;DHT22;7907;51.368;6.730;2023-02-15T16:53:34;13.00;76.70
15615;DHT22;7907;51.368;6.730;2023-02-15T16:56:04;12.90;77.60
15615;DHT22;7907;51.368;6.730;2023-02-15T16:58:42;12.80;78.60
15615;DHT22;7907;51.368;6.730;2023-02-15T17:01:11;12.70;79.70
15615;DHT22;7907;51.368;6.730;2023-02-15T17:03:40;12.60;80.40
15615;DHT22;7907;51.368;6.730;2023-02-15T17:06:21;12.60;81.40
15615;DHT22;7907;51.368;6.730;2023-02-15T17:08:48;12.50;82.20
15615;DHT22;7907;51.368;6.730;2023-02-15T17:11:17;12.40;83.20
15615;DHT22;7907;51.368;6.730;2023-02-15T17:14:18;12.30;84.30
15615;DHT22;7907;51.368;6.730;2023-02-15T17:16:48;12.20;85.50
15615;DHT22;7907;51.368;6.730;2023-02-15T17:19:19;12.20;87.20
15615;DHT22;7907;51.368;6.730;2023-02-15T17:21:52;12.10;88.20